Aviation Digital Data Service (ADDS)

Output produced by METARs form (0929 UTC 05 July 2015)
found at http://aviationweather.gov/adds/metars/
 
KILM 050522Z 0506/0606 21008KT P6SM VCSH FEW045 BKN140 
     FM051300 26007KT P6SM FEW040 SCT140 BKN250 
     FM051900 20009KT P6SM FEW050 SCT140 SCT250